^^
Saratoga-Weather Station Historical Data
Daily Summary for December 18, 2020 Units:  Both    English   Metric
Daily Weekly Monthly Yearly Custom
  High: Low: Average:
Temperature: 46.8 °F /  8.2 °C 38.7 °F /  3.7 °C 41.5 °F /  5.3 °C
Dew Point: 45.1 °F /  7.3 °C 37.6 °F /  3.1 °C 40.3 °F /  4.6 °C
Humidity: 97% 93% 95%
Wind Speed: 0.9mph /  1.4km/h - 0.1mph /  0.1km/h
Wind Gust: 3mph /  4.8km/h - -
Wind- - South
Pressure: 30.2 in /  1023.7 hPa 30.2 in /  1023.4 hPa -
Precipitation: 0 in /  0.0 mm    
Historical Graphs
 
 
Tabular Data for December 18, 2020
Time Temperature Dew Point Pressure Wind Wind Speed Wind Gust Humidity Rainfall Rate (Hourly) solar
00:02 46.8 °F /  8.2 °C 45.1 °F /  7.3 °C 30.2in /  1023.7hPa Calm   1mph /  1.6km/h 94% 0in /  0.0mm 0 W/m2
00:07 46.6 °F /  8.1 °C 45 °F /  7.2 °C 30.2in /  1023.7hPa Calm   2mph /  3.2km/h 94% 0in /  0.0mm 0 W/m2
00:12 46.6 °F /  8.1 °C 44.6 °F /  7 °C 30.2in /  1023.7hPa Calm     93% 0in /  0.0mm 0 W/m2
00:17 46.4 °F /  8 °C 44.4 °F /  6.9 °C 30.2in /  1023.7hPa Calm     93% 0in /  0.0mm 0 W/m2
00:22 46.2 °F /  7.9 °C 44.2 °F /  6.8 °C 30.2in /  1023.7hPa Calm   2mph /  3.2km/h 93% 0in /  0.0mm 0 W/m2
00:27 46 °F /  7.8 °C 44.1 °F /  6.7 °C 30.2in /  1023.7hPa Calm   2mph /  3.2km/h 93% 0in /  0.0mm 0 W/m2
00:47 45.5 °F /  7.5 °C 43.9 °F /  6.6 °C 30.2in /  1023.7hPa Calm     94% 0in /  0.0mm 0 W/m2
00:52 45.1 °F /  7.3 °C 43.5 °F /  6.4 °C 30.2in /  1023.7hPa Calm   2mph /  3.2km/h 94% 0in /  0.0mm 0 W/m2
00:57 45.1 °F /  7.3 °C 43.5 °F /  6.4 °C 30.2in /  1023.7hPa Calm   3mph /  4.8km/h 94% 0in /  0.0mm 0 W/m2
01:02 45 °F /  7.2 °C 43.3 °F /  6.3 °C 30.2in /  1023.7hPa Calm     94% 0in /  0.0mm 0 W/m2
01:07 45 °F /  7.2 °C 43.3 °F /  6.3 °C 30.2in /  1023.7hPa WNW 0.9mph /  1.4km/h 3mph /  4.8km/h 94% 0in /  0.0mm 0 W/m2
01:12 45 °F /  7.2 °C 43.3 °F /  6.3 °C 30.2in /  1023.4hPa Calm     94% 0in /  0.0mm 0 W/m2
01:17 44.8 °F /  7.1 °C 43.2 °F /  6.2 °C 30.2in /  1023.7hPa Calm     94% 0in /  0.0mm 0 W/m2
01:22 44.4 °F /  6.9 °C 42.8 °F /  6 °C 30.2in /  1023.4hPa SE 0.9mph /  1.4km/h 2mph /  3.2km/h 94% 0in /  0.0mm 0 W/m2
01:27 44.2 °F /  6.8 °C 42.6 °F /  5.9 °C 30.2in /  1023.4hPa Calm     94% 0in /  0.0mm 0 W/m2
01:32 44.1 °F /  6.7 °C 42.4 °F /  5.8 °C 30.2in /  1023.7hPa Calm   2mph /  3.2km/h 94% 0in /  0.0mm 0 W/m2
01:37 43.9 °F /  6.6 °C 42.3 °F /  5.7 °C 30.2in /  1023.4hPa Calm   2mph /  3.2km/h 94% 0in /  0.0mm 0 W/m2
01:42 43.3 °F /  6.3 °C 41.7 °F /  5.4 °C 30.2in /  1023.7hPa Calm   2mph /  3.2km/h 94% 0in /  0.0mm 0 W/m2
01:47 43.2 °F /  6.2 °C 41.5 °F /  5.3 °C 30.2in /  1023.7hPa Calm     94% 0in /  0.0mm 0 W/m2
01:52 42.8 °F /  6 °C 41.2 °F /  5.1 °C 30.2in /  1023.4hPa Calm   2mph /  3.2km/h 94% 0in /  0.0mm 0 W/m2
01:57 42.4 °F /  5.8 °C 40.8 °F /  4.9 °C 30.2in /  1023.4hPa Calm     94% 0in /  0.0mm 0 W/m2
02:02 42.3 °F /  5.7 °C 40.6 °F /  4.8 °C 30.2in /  1023.4hPa Calm     94% 0in /  0.0mm 0 W/m2
02:07 42.1 °F /  5.6 °C 40.8 °F /  4.9 °C 30.2in /  1023.4hPa Calm     95% 0in /  0.0mm 0 W/m2
02:12 41.7 °F /  5.4 °C 40.5 °F /  4.7 °C 30.2in /  1023.7hPa Calm     95% 0in /  0.0mm 0 W/m2
02:17 41.5 °F /  5.3 °C 40.3 °F /  4.6 °C 30.2in /  1023.7hPa SE 0.9mph /  1.4km/h 1mph /  1.6km/h 95% 0in /  0.0mm 0 W/m2
02:22 41.4 °F /  5.2 °C 40.1 °F /  4.5 °C 30.2in /  1023.4hPa Calm     95% 0in /  0.0mm 0 W/m2
02:27 41.2 °F /  5.1 °C 39.9 °F /  4.4 °C 30.2in /  1023.7hPa Calm     95% 0in /  0.0mm 0 W/m2
02:32 41 °F /  5 °C 39.7 °F /  4.3 °C 30.2in /  1023.7hPa Calm     95% 0in /  0.0mm 0 W/m2
02:37 40.6 °F /  4.8 °C 39.4 °F /  4.1 °C 30.2in /  1023.7hPa Calm     95% 0in /  0.0mm 0 W/m2
02:42 40.5 °F /  4.7 °C 39.2 °F /  4 °C 30.2in /  1023.7hPa Calm     95% 0in /  0.0mm 0 W/m2
02:47 40.3 °F /  4.6 °C 39 °F /  3.9 °C 30.2in /  1023.7hPa Calm     95% 0in /  0.0mm 0 W/m2
02:52 40.3 °F /  4.6 °C 39 °F /  3.9 °C 30.2in /  1023.7hPa Calm     95% 0in /  0.0mm 0 W/m2
02:57 40.3 °F /  4.6 °C 39 °F /  3.9 °C 30.2in /  1023.7hPa Calm     95% 0in /  0.0mm 0 W/m2
03:02 40.3 °F /  4.6 °C 39.2 °F /  4 °C 30.2in /  1023.7hPa Calm   2mph /  3.2km/h 96% 0in /  0.0mm 0 W/m2
03:07 40.1 °F /  4.5 °C 39 °F /  3.9 °C 30.2in /  1023.7hPa Calm     96% 0in /  0.0mm 0 W/m2
03:12 39.9 °F /  4.4 °C 38.7 °F /  3.7 °C 30.2in /  1023.7hPa Calm   2mph /  3.2km/h 95% 0in /  0.0mm 0 W/m2
03:17 39.7 °F /  4.3 °C 38.5 °F /  3.6 °C 30.2in /  1023.7hPa Calm     95% 0in /  0.0mm 0 W/m2
03:22 39.6 °F /  4.2 °C 38.3 °F /  3.5 °C 30.2in /  1023.7hPa Calm     95% 0in /  0.0mm 0 W/m2
03:27 39.4 °F /  4.1 °C 38.3 °F /  3.5 °C 30.2in /  1023.7hPa Calm     96% 0in /  0.0mm 0 W/m2
03:32 39 °F /  3.9 °C 37.8 °F /  3.2 °C 30.2in /  1023.4hPa Calm   1mph /  1.6km/h 95% 0in /  0.0mm 0 W/m2
03:37 38.8 °F /  3.8 °C 37.8 °F /  3.2 °C 30.2in /  1023.4hPa Calm     96% 0in /  0.0mm 0 W/m2
03:42 38.8 °F /  3.8 °C 37.8 °F /  3.2 °C 30.2in /  1023.4hPa Calm     96% 0in /  0.0mm 0 W/m2
03:48 38.8 °F /  3.8 °C 37.8 °F /  3.2 °C 30.2in /  1023.4hPa Calm     96% 0in /  0.0mm 0 W/m2
03:53 38.8 °F /  3.8 °C 37.8 °F /  3.2 °C 30.2in /  1023.4hPa Calm   1mph /  1.6km/h 96% 0in /  0.0mm 0 W/m2
03:58 38.7 °F /  3.7 °C 37.6 °F /  3.1 °C 30.2in /  1023.7hPa Calm     96% 0in /  0.0mm 0 W/m2
04:03 38.7 °F /  3.7 °C 37.6 °F /  3.1 °C 30.2in /  1023.7hPa Calm     96% 0in /  0.0mm 0 W/m2
04:08 38.7 °F /  3.7 °C 37.6 °F /  3.1 °C 30.2in /  1023.7hPa Calm     96% 0in /  0.0mm 0 W/m2
04:13 38.8 °F /  3.8 °C 37.8 °F /  3.2 °C 30.2in /  1023.4hPa Calm     96% 0in /  0.0mm 0 W/m2
04:18 39.2 °F /  4 °C 38.1 °F /  3.4 °C 30.2in /  1023.4hPa Calm     96% 0in /  0.0mm 0 W/m2
04:23 39.4 °F /  4.1 °C 38.7 °F /  3.7 °C 30.2in /  1023.7hPa Calm     97% 0in /  0.0mm 0 W/m2
04:28 39.4 °F /  4.1 °C 38.7 °F /  3.7 °C 30.2in /  1023.4hPa Calm     97% 0in /  0.0mm 0 W/m2
04:33 39.6 °F /  4.2 °C 38.8 °F /  3.8 °C 30.2in /  1023.4hPa Calm     97% 0in /  0.0mm 0 W/m2
04:38 39.7 °F /  4.3 °C 39 °F /  3.9 °C 30.2in /  1023.4hPa SE 0.9mph /  1.4km/h 2mph /  3.2km/h 97% 0in /  0.0mm 0 W/m2
04:43 40.1 °F /  4.5 °C 39.4 °F /  4.1 °C 30.2in /  1023.4hPa SE 0.9mph /  1.4km/h 2mph /  3.2km/h 97% 0in /  0.0mm 0 W/m2
04:48 40.1 °F /  4.5 °C 39.4 °F /  4.1 °C 30.2in /  1023.4hPa Calm     97% 0in /  0.0mm 0 W/m2
04:53 39.9 °F /  4.4 °C 39.2 °F /  4 °C 30.2in /  1023.4hPa Calm   1mph /  1.6km/h 97% 0in /  0.0mm 0 W/m2
04:58 39.9 °F /  4.4 °C 39.2 °F /  4 °C 30.2in /  1023.4hPa Calm     97% 0in /  0.0mm 0 W/m2
05:03 39.9 °F /  4.4 °C 39.2 °F /  4 °C 30.2in /  1023.4hPa Calm     97% 0in /  0.0mm 0 W/m2
05:08 39.9 °F /  4.4 °C 39.2 °F /  4 °C 30.2in /  1023.4hPa Calm     97% 0in /  0.0mm 0 W/m2
05:13 39.9 °F /  4.4 °C 39.2 °F /  4 °C 30.2in /  1023.4hPa Calm     97% 0in /  0.0mm 0 W/m2
05:18 39.9 °F /  4.4 °C 39.2 °F /  4 °C 30.2in /  1023.4hPa Calm     97% 0in /  0.0mm 0 W/m2
05:23 39.7 °F /  4.3 °C 39 °F /  3.9 °C 30.2in /  1023.4hPa Calm     97% 0in /  0.0mm 0 W/m2
Juneau County Weather
Compliments of Weather Underground - 2 mb